sensor_id;sensor_type;location;lat;lon;timestamp;pressure;altitude;pressure_sealevel;temperature;humidity
62436;BME280;48480;50.252;18.848;2024-01-16T00:00:43;96955.95;;;0.46;73.98
62436;BME280;48480;50.252;18.848;2024-01-16T00:03:27;96956.38;;;0.46;73.83
62436;BME280;48480;50.252;18.848;2024-01-16T00:06:11;96958.07;;;0.45;73.93
62436;BME280;48480;50.252;18.848;2024-01-16T00:08:56;96966.11;;;0.45;73.83
62436;BME280;48480;50.252;18.848;2024-01-16T00:11:40;96967.64;;;0.41;73.70
62436;BME280;48480;50.252;18.848;2024-01-16T00:14:26;96972.84;;;0.34;73.40
62436;BME280;48480;50.252;18.848;2024-01-16T00:17:10;96961.12;;;0.23;73.65
62436;BME280;48480;50.252;18.848;2024-01-16T00:19:55;96962.83;;;0.21;73.89
62436;BME280;48480;50.252;18.848;2024-01-16T00:22:39;96974.17;;;0.33;73.91
62436;BME280;48480;50.252;18.848;2024-01-16T00:25:23;96985.59;;;0.39;73.94
62436;BME280;48480;50.252;18.848;2024-01-16T00:28:07;96987.39;;;0.43;74.14
62436;BME280;48480;50.252;18.848;2024-01-16T00:30:51;96980.45;;;0.37;74.22
62436;BME280;48480;50.252;18.848;2024-01-16T00:33:35;96987.98;;;0.38;74.23
62436;BME280;48480;50.252;18.848;2024-01-16T00:36:19;96992.26;;;0.33;74.50
62436;BME280;48480;50.252;18.848;2024-01-16T00:39:03;97003.23;;;0.33;74.63
62436;BME280;48480;50.252;18.848;2024-01-16T00:41:47;97003.64;;;0.30;74.51
62436;BME280;48480;50.252;18.848;2024-01-16T00:44:31;97004.02;;;0.27;74.81
62436;BME280;48480;50.252;18.848;2024-01-16T00:47:15;97010.41;;;0.25;74.87
62436;BME280;48480;50.252;18.848;2024-01-16T00:49:59;97007.21;;;0.24;75.22
62436;BME280;48480;50.252;18.848;2024-01-16T00:52:44;97008.34;;;0.26;75.14
62436;BME280;48480;50.252;18.848;2024-01-16T00:55:28;97013.39;;;0.35;74.82
62436;BME280;48480;50.252;18.848;2024-01-16T00:58:12;97012.18;;;0.44;74.90
62436;BME280;48480;50.252;18.848;2024-01-16T01:00:56;97012.83;;;0.50;74.79
62436;BME280;48480;50.252;18.848;2024-01-16T01:03:40;97013.67;;;0.51;74.77
62436;BME280;48480;50.252;18.848;2024-01-16T01:06:24;97014.67;;;0.46;74.82
62436;BME280;48480;50.252;18.848;2024-01-16T01:09:08;97020.27;;;0.39;74.96
62436;BME280;48480;50.252;18.848;2024-01-16T01:11:55;97021.87;;;0.33;75.15
62436;BME280;48480;50.252;18.848;2024-01-16T01:14:39;97018.65;;;0.28;75.38
62436;BME280;48480;50.252;18.848;2024-01-16T01:17:23;97018.86;;;0.24;75.59
62436;BME280;48480;50.252;18.848;2024-01-16T01:20:08;97014.96;;;0.20;75.82
62436;BME280;48480;50.252;18.848;2024-01-16T01:22:52;97015.67;;;0.18;75.95
62436;BME280;48480;50.252;18.848;2024-01-16T01:25:37;97012.78;;;0.21;75.93
62436;BME280;48480;50.252;18.848;2024-01-16T01:28:22;97016.45;;;0.28;75.88
62436;BME280;48480;50.252;18.848;2024-01-16T01:31:09;97011.16;;;0.33;75.90
62436;BME280;48480;50.252;18.848;2024-01-16T01:33:53;97008.76;;;0.35;75.82
62436;BME280;48480;50.252;18.848;2024-01-16T01:36:37;97010.41;;;0.34;75.81
62436;BME280;48480;50.252;18.848;2024-01-16T01:39:22;97018.46;;;0.34;75.83
62436;BME280;48480;50.252;18.848;2024-01-16T01:42:06;97012.83;;;0.34;75.85
62436;BME280;48480;50.252;18.848;2024-01-16T01:44:50;97021.70;;;0.34;75.75
62436;BME280;48480;50.252;18.848;2024-01-16T01:47:34;97027.42;;;0.31;75.99
62436;BME280;48480;50.252;18.848;2024-01-16T01:50:18;97026.40;;;0.29;75.88
62436;BME280;48480;50.252;18.848;2024-01-16T01:53:02;97025.92;;;0.25;75.98
62436;BME280;48480;50.252;18.848;2024-01-16T01:55:47;97024.33;;;0.22;75.64
62436;BME280;48480;50.252;18.848;2024-01-16T01:58:33;97028.85;;;0.26;75.73
62436;BME280;48480;50.252;18.848;2024-01-16T02:01:17;97029.58;;;0.32;75.15
62436;BME280;48480;50.252;18.848;2024-01-16T02:04:04;97030.80;;;0.32;74.97
62436;BME280;48480;50.252;18.848;2024-01-16T02:06:49;97034.92;;;0.32;74.72
62436;BME280;48480;50.252;18.848;2024-01-16T02:09:34;97036.84;;;0.29;74.56
62436;BME280;48480;50.252;18.848;2024-01-16T02:12:18;97037.56;;;0.26;74.57
62436;BME280;48480;50.252;18.848;2024-01-16T02:15:02;97041.52;;;0.22;74.60
62436;BME280;48480;50.252;18.848;2024-01-16T02:17:47;97039.77;;;0.17;74.52
62436;BME280;48480;50.252;18.848;2024-01-16T02:20:31;97039.66;;;0.14;74.58
62436;BME280;48480;50.252;18.848;2024-01-16T02:23:27;97038.94;;;0.09;74.35
62436;BME280;48480;50.252;18.848;2024-01-16T02:26:14;97041.05;;;0.09;74.41
62436;BME280;48480;50.252;18.848;2024-01-16T02:29:00;97038.64;;;0.10;74.30
62436;BME280;48480;50.252;18.848;2024-01-16T02:31:45;97035.16;;;0.08;74.43
62436;BME280;48480;50.252;18.848;2024-01-16T02:34:29;97037.34;;;0.02;74.67
62436;BME280;48480;50.252;18.848;2024-01-16T02:37:13;97044.92;;;-0.03;75.03
62436;BME280;48480;50.252;18.848;2024-01-16T02:39:57;97051.54;;;-0.06;75.35
62436;BME280;48480;50.252;18.848;2024-01-16T02:42:42;97053.52;;;-0.10;75.95
62436;BME280;48480;50.252;18.848;2024-01-16T02:45:26;97056.27;;;-0.09;76.37
62436;BME280;48480;50.252;18.848;2024-01-16T02:48:10;97060.70;;;-0.04;76.68
62436;BME280;48480;50.252;18.848;2024-01-16T02:50:54;97065.96;;;-0.04;77.40
62436;BME280;48480;50.252;18.848;2024-01-16T02:53:38;97067.84;;;-0.07;77.90
62436;BME280;48480;50.252;18.848;2024-01-16T02:56:22;97065.10;;;-0.11;78.66
62436;BME280;48480;50.252;18.848;2024-01-16T02:59:06;97066.50;;;-0.15;79.42
62436;BME280;48480;50.252;18.848;2024-01-16T03:01:51;97067.92;;;-0.20;80.06
62436;BME280;48480;50.252;18.848;2024-01-16T03:04:35;97067.00;;;-0.27;80.78
62436;BME280;48480;50.252;18.848;2024-01-16T03:07:19;97069.89;;;-0.27;81.24
62436;BME280;48480;50.252;18.848;2024-01-16T03:10:04;97078.17;;;-0.22;81.81
62436;BME280;48480;50.252;18.848;2024-01-16T03:12:48;97083.36;;;-0.20;82.28
62436;BME280;48480;50.252;18.848;2024-01-16T03:15:32;97081.41;;;-0.20;82.59
62436;BME280;48480;50.252;18.848;2024-01-16T03:18:16;97086.81;;;-0.23;82.75
62436;BME280;48480;50.252;18.848;2024-01-16T03:21:00;97092.37;;;-0.25;83.22
62436;BME280;48480;50.252;18.848;2024-01-16T03:23:44;97094.66;;;-0.28;83.47
62436;BME280;48480;50.252;18.848;2024-01-16T03:26:28;97095.58;;;-0.29;83.72
62436;BME280;48480;50.252;18.848;2024-01-16T03:29:12;97101.48;;;-0.30;83.63
62436;BME280;48480;50.252;18.848;2024-01-16T03:31:56;97105.21;;;-0.29;83.54
62436;BME280;48480;50.252;18.848;2024-01-16T03:34:40;97106.23;;;-0.24;83.36
62436;BME280;48480;50.252;18.848;2024-01-16T03:37:24;97107.11;;;-0.17;83.14
62436;BME280;48480;50.252;18.848;2024-01-16T03:40:08;97112.46;;;-0.09;82.89
62436;BME280;48480;50.252;18.848;2024-01-16T03:42:53;97118.66;;;-0.06;82.41
62436;BME280;48480;50.252;18.848;2024-01-16T03:45:38;97126.01;;;-0.09;82.19
62436;BME280;48480;50.252;18.848;2024-01-16T03:48:22;97128.09;;;-0.21;81.41
62436;BME280;48480;50.252;18.848;2024-01-16T03:51:07;97131.83;;;-0.34;81.27
62436;BME280;48480;50.252;18.848;2024-01-16T03:53:51;97138.21;;;-0.49;82.42
62436;BME280;48480;50.252;18.848;2024-01-16T03:56:35;97145.02;;;-0.64;86.09
62436;BME280;48480;50.252;18.848;2024-01-16T03:59:19;97155.80;;;-0.70;87.23
62436;BME280;48480;50.252;18.848;2024-01-16T04:02:04;97160.54;;;-0.70;86.35
62436;BME280;48480;50.252;18.848;2024-01-16T04:04:47;97158.86;;;-0.71;85.63
62436;BME280;48480;50.252;18.848;2024-01-16T04:07:31;97159.95;;;-0.77;85.05
62436;BME280;48480;50.252;18.848;2024-01-16T04:10:16;97169.11;;;-0.78;84.72
62436;BME280;48480;50.252;18.848;2024-01-16T04:13:01;97172.97;;;-0.79;84.19
62436;BME280;48480;50.252;18.848;2024-01-16T04:15:45;97179.07;;;-0.77;83.90
62436;BME280;48480;50.252;18.848;2024-01-16T04:18:30;97187.15;;;-0.72;83.76
62436;BME280;48480;50.252;18.848;2024-01-16T04:21:16;97192.45;;;-0.70;83.62
62436;BME280;48480;50.252;18.848;2024-01-16T04:24:01;97199.36;;;-0.71;83.60
62436;BME280;48480;50.252;18.848;2024-01-16T04:26:45;97201.81;;;-0.68;83.72
62436;BME280;48480;50.252;18.848;2024-01-16T04:29:29;97207.52;;;-0.63;83.48
62436;BME280;48480;50.252;18.848;2024-01-16T04:32:13;97208.02;;;-0.59;83.49
62436;BME280;48480;50.252;18.848;2024-01-16T04:34:57;97208.60;;;-0.48;83.11
62436;BME280;48480;50.252;18.848;2024-01-16T04:37:41;97208.61;;;-0.34;83.14
62436;BME280;48480;50.252;18.848;2024-01-16T04:40:25;97207.10;;;-0.22;83.00
62436;BME280;48480;50.252;18.848;2024-01-16T04:43:09;97211.81;;;-0.11;83.08
62436;BME280;48480;50.252;18.848;2024-01-16T04:45:53;97215.62;;;-0.06;82.67
62436;BME280;48480;50.252;18.848;2024-01-16T04:48:37;97223.56;;;-0.05;82.12
62436;BME280;48480;50.252;18.848;2024-01-16T04:51:21;97240.26;;;-0.08;81.60
62436;BME280;48480;50.252;18.848;2024-01-16T04:54:06;97238.32;;;-0.09;81.62
62436;BME280;48480;50.252;18.848;2024-01-16T04:56:50;97242.95;;;-0.09;81.61
62436;BME280;48480;50.252;18.848;2024-01-16T04:59:34;97241.91;;;-0.10;81.38
62436;BME280;48480;50.252;18.848;2024-01-16T05:02:18;97245.21;;;-0.15;80.99
62436;BME280;48480;50.252;18.848;2024-01-16T05:05:05;97242.56;;;-0.22;80.98
62436;BME280;48480;50.252;18.848;2024-01-16T05:07:50;97245.73;;;-0.23;80.97
62436;BME280;48480;50.252;18.848;2024-01-16T05:10:35;97248.11;;;-0.23;81.27
62436;BME280;48480;50.252;18.848;2024-01-16T05:13:19;97257.23;;;-0.22;81.23
62436;BME280;48480;50.252;18.848;2024-01-16T05:16:03;97256.88;;;-0.18;81.36
62436;BME280;48480;50.252;18.848;2024-01-16T05:18:47;97257.13;;;-0.16;80.95
62436;BME280;48480;50.252;18.848;2024-01-16T05:21:32;97255.66;;;-0.11;81.32
62436;BME280;48480;50.252;18.848;2024-01-16T05:24:16;97259.19;;;-0.02;81.34
62436;BME280;48480;50.252;18.848;2024-01-16T05:27:01;97266.25;;;0.06;81.24
62436;BME280;48480;50.252;18.848;2024-01-16T05:29:45;97268.79;;;0.07;81.35
62436;BME280;48480;50.252;18.848;2024-01-16T05:32:29;97260.09;;;0.06;81.40
62436;BME280;48480;50.252;18.848;2024-01-16T05:35:14;97277.55;;;0.04;81.47
62436;BME280;48480;50.252;18.848;2024-01-16T05:37:57;97283.02;;;0.05;81.65
62436;BME280;48480;50.252;18.848;2024-01-16T05:40:42;97278.60;;;0.04;81.65
62436;BME280;48480;50.252;18.848;2024-01-16T05:43:27;97285.11;;;-0.05;81.09
62436;BME280;48480;50.252;18.848;2024-01-16T05:46:12;97286.70;;;-0.15;81.32
62436;BME280;48480;50.252;18.848;2024-01-16T05:48:57;97287.77;;;-0.18;81.66
62436;BME280;48480;50.252;18.848;2024-01-16T05:51:41;97285.90;;;-0.23;81.76
62436;BME280;48480;50.252;18.848;2024-01-16T05:54:26;97291.08;;;-0.24;82.10
62436;BME280;48480;50.252;18.848;2024-01-16T05:57:10;97297.17;;;-0.22;82.41
62436;BME280;48480;50.252;18.848;2024-01-16T05:59:53;97303.61;;;-0.15;82.38
62436;BME280;48480;50.252;18.848;2024-01-16T06:02:38;97313.30;;;-0.04;82.33
62436;BME280;48480;50.252;18.848;2024-01-16T06:05:25;97319.45;;;0.07;82.34
62436;BME280;48480;50.252;18.848;2024-01-16T06:08:09;97320.52;;;0.14;82.28
62436;BME280;48480;50.252;18.848;2024-01-16T06:10:53;97323.67;;;0.14;82.51
62436;BME280;48480;50.252;18.848;2024-01-16T06:13:37;97329.16;;;0.13;82.71
62436;BME280;48480;50.252;18.848;2024-01-16T06:16:21;97332.83;;;0.09;83.02
62436;BME280;48480;50.252;18.848;2024-01-16T06:19:07;97334.20;;;0.03;83.14
62436;BME280;48480;50.252;18.848;2024-01-16T06:21:51;97334.02;;;-0.02;83.38
62436;BME280;48480;50.252;18.848;2024-01-16T06:24:36;97340.20;;;-0.04;83.48
62436;BME280;48480;50.252;18.848;2024-01-16T06:27:20;97344.27;;;-0.06;83.51
62436;BME280;48480;50.252;18.848;2024-01-16T06:30:04;97354.77;;;-0.08;83.71
62436;BME280;48480;50.252;18.848;2024-01-16T06:35:47;97359.64;;;-0.00;83.71
62436;BME280;48480;50.252;18.848;2024-01-16T06:38:31;97363.38;;;-0.02;83.56
62436;BME280;48480;50.252;18.848;2024-01-16T06:41:16;97361.16;;;-0.01;83.70
62436;BME280;48480;50.252;18.848;2024-01-16T06:43:59;97358.55;;;-0.04;83.91
62436;BME280;48480;50.252;18.848;2024-01-16T06:46:43;97362.15;;;-0.07;84.12
62436;BME280;48480;50.252;18.848;2024-01-16T06:49:28;97363.70;;;-0.09;84.08
62436;BME280;48480;50.252;18.848;2024-01-16T06:52:12;97379.42;;;-0.13;84.23
62436;BME280;48480;50.252;18.848;2024-01-16T06:54:56;97385.81;;;-0.15;84.41
62436;BME280;48480;50.252;18.848;2024-01-16T06:57:40;97395.33;;;-0.20;84.28
62436;BME280;48480;50.252;18.848;2024-01-16T07:00:25;97399.40;;;-0.25;84.36
62436;BME280;48480;50.252;18.848;2024-01-16T07:03:10;97406.72;;;-0.21;84.18
62436;BME280;48480;50.252;18.848;2024-01-16T07:05:55;97421.84;;;-0.17;83.94
62436;BME280;48480;50.252;18.848;2024-01-16T07:08:39;97430.32;;;-0.20;83.95
62436;BME280;48480;50.252;18.848;2024-01-16T07:11:25;97434.25;;;-0.24;84.45
62436;BME280;48480;50.252;18.848;2024-01-16T07:14:09;97436.10;;;-0.26;84.67
62436;BME280;48480;50.252;18.848;2024-01-16T07:16:53;97445.40;;;-0.33;84.73
62436;BME280;48480;50.252;18.848;2024-01-16T07:19:37;97444.14;;;-0.37;85.04
62436;BME280;48480;50.252;18.848;2024-01-16T07:22:21;97442.37;;;-0.41;84.85
62436;BME280;48480;50.252;18.848;2024-01-16T07:25:06;97443.09;;;-0.37;85.04
62436;BME280;48480;50.252;18.848;2024-01-16T07:27:51;97448.59;;;-0.28;84.79
62436;BME280;48480;50.252;18.848;2024-01-16T07:30:35;97451.88;;;-0.17;84.75
62436;BME280;48480;50.252;18.848;2024-01-16T07:33:20;97456.47;;;-0.04;84.57
62436;BME280;48480;50.252;18.848;2024-01-16T07:36:06;97457.20;;;0.05;84.53
62436;BME280;48480;50.252;18.848;2024-01-16T07:38:50;97459.81;;;0.11;84.59
62436;BME280;48480;50.252;18.848;2024-01-16T07:41:34;97462.29;;;0.14;84.52
62436;BME280;48480;50.252;18.848;2024-01-16T07:44:18;97465.23;;;0.17;84.34
62436;BME280;48480;50.252;18.848;2024-01-16T07:47:02;97469.48;;;0.20;84.25
62436;BME280;48480;50.252;18.848;2024-01-16T07:49:47;97472.91;;;0.21;84.09
62436;BME280;48480;50.252;18.848;2024-01-16T07:52:31;97474.48;;;0.22;83.80
62436;BME280;48480;50.252;18.848;2024-01-16T07:55:15;97480.33;;;0.34;83.45
62436;BME280;48480;50.252;18.848;2024-01-16T07:58:01;97481.91;;;0.52;83.09
62436;BME280;48480;50.252;18.848;2024-01-16T08:00:47;97480.64;;;0.69;82.64
62436;BME280;48480;50.252;18.848;2024-01-16T08:03:32;97484.64;;;0.80;81.81
62436;BME280;48480;50.252;18.848;2024-01-16T08:06:16;97489.91;;;0.81;81.25
62436;BME280;48480;50.252;18.848;2024-01-16T08:09:00;97490.58;;;0.83;80.98
62436;BME280;48480;50.252;18.848;2024-01-16T08:11:44;97489.58;;;0.84;80.29
62436;BME280;48480;50.252;18.848;2024-01-16T08:14:29;97494.82;;;0.81;80.28
62436;BME280;48480;50.252;18.848;2024-01-16T08:17:12;97497.89;;;0.80;79.97
62436;BME280;48480;50.252;18.848;2024-01-16T08:19:56;97506.45;;;0.80;79.70
62436;BME280;48480;50.252;18.848;2024-01-16T08:22:41;97506.38;;;0.82;79.28
62436;BME280;48480;50.252;18.848;2024-01-16T08:25:25;97513.80;;;0.93;79.25
62436;BME280;48480;50.252;18.848;2024-01-16T08:28:10;97514.64;;;1.08;78.63
62436;BME280;48480;50.252;18.848;2024-01-16T08:30:54;97521.04;;;1.19;78.02
62436;BME280;48480;50.252;18.848;2024-01-16T08:33:37;97525.85;;;1.20;77.26
62436;BME280;48480;50.252;18.848;2024-01-16T08:36:21;97532.21;;;1.11;77.08
62436;BME280;48480;50.252;18.848;2024-01-16T08:39:06;97532.58;;;1.25;77.34
62436;BME280;48480;50.252;18.848;2024-01-16T08:41:51;97530.09;;;1.66;77.45
62436;BME280;48480;50.252;18.848;2024-01-16T08:44:35;97530.20;;;2.19;76.04
62436;BME280;48480;50.252;18.848;2024-01-16T08:47:19;97529.13;;;2.39;74.20
62436;BME280;48480;50.252;18.848;2024-01-16T08:50:03;97532.27;;;2.33;73.51
62436;BME280;48480;50.252;18.848;2024-01-16T08:52:47;97537.63;;;2.15;72.99
62436;BME280;48480;50.252;18.848;2024-01-16T08:55:32;97543.55;;;1.90;73.17
62436;BME280;48480;50.252;18.848;2024-01-16T08:58:16;97549.00;;;1.69;73.50
62436;BME280;48480;50.252;18.848;2024-01-16T09:01:05;97547.42;;;1.52;73.82
62436;BME280;48480;50.252;18.848;2024-01-16T09:03:54;97547.48;;;1.38;74.05
62436;BME280;48480;50.252;18.848;2024-01-16T09:06:41;97555.40;;;1.27;74.30
62436;BME280;48480;50.252;18.848;2024-01-16T09:09:28;97559.89;;;1.19;74.50
62436;BME280;48480;50.252;18.848;2024-01-16T09:12:15;97567.49;;;1.19;74.52
62436;BME280;48480;50.252;18.848;2024-01-16T09:15:12;97569.02;;;1.21;74.72
62436;BME280;48480;50.252;18.848;2024-01-16T09:17:57;97571.20;;;1.25;74.70
62436;BME280;48480;50.252;18.848;2024-01-16T09:20:42;97572.77;;;1.28;74.49
62436;BME280;48480;50.252;18.848;2024-01-16T09:23:27;97575.27;;;1.26;74.26
62436;BME280;48480;50.252;18.848;2024-01-16T09:26:11;97571.98;;;1.20;74.19
62436;BME280;48480;50.252;18.848;2024-01-16T09:28:55;97579.80;;;1.13;74.28
62436;BME280;48480;50.252;18.848;2024-01-16T09:31:39;97581.94;;;1.08;74.04
62436;BME280;48480;50.252;18.848;2024-01-16T09:34:23;97582.84;;;1.06;74.12
62436;BME280;48480;50.252;18.848;2024-01-16T09:37:07;97586.45;;;1.06;74.36
62436;BME280;48480;50.252;18.848;2024-01-16T09:39:51;97586.77;;;1.15;74.32
62436;BME280;48480;50.252;18.848;2024-01-16T09:42:36;97591.52;;;1.22;73.97
62436;BME280;48480;50.252;18.848;2024-01-16T09:45:21;97586.70;;;1.31;74.07
62436;BME280;48480;50.252;18.848;2024-01-16T09:48:07;97585.45;;;1.43;73.77
62436;BME280;48480;50.252;18.848;2024-01-16T09:50:52;97583.92;;;1.48;73.54
62436;BME280;48480;50.252;18.848;2024-01-16T09:53:36;97585.98;;;1.55;73.32
62436;BME280;48480;50.252;18.848;2024-01-16T09:56:22;97587.82;;;1.63;72.94
62436;BME280;48480;50.252;18.848;2024-01-16T09:59:09;97592.30;;;1.65;72.42
62436;BME280;48480;50.252;18.848;2024-01-16T10:01:56;97592.82;;;1.71;71.87
62436;BME280;48480;50.252;18.848;2024-01-16T10:04:41;97590.66;;;1.75;71.46
62436;BME280;48480;50.252;18.848;2024-01-16T10:07:26;97591.39;;;1.88;70.90
62436;BME280;48480;50.252;18.848;2024-01-16T10:10:12;97595.73;;;2.04;70.25
62436;BME280;48480;50.252;18.848;2024-01-16T10:12:57;97595.05;;;2.08;69.48
62436;BME280;48480;50.252;18.848;2024-01-16T10:15:41;97603.13;;;2.10;69.49
62436;BME280;48480;50.252;18.848;2024-01-16T10:18:27;97606.70;;;2.12;69.76
62436;BME280;48480;50.252;18.848;2024-01-16T10:21:20;97612.98;;;2.09;69.22
62436;BME280;48480;50.252;18.848;2024-01-16T10:24:12;97618.55;;;1.97;67.41
62436;BME280;48480;50.252;18.848;2024-01-16T10:26:58;97621.99;;;1.77;67.26
62436;BME280;48480;50.252;18.848;2024-01-16T10:29:56;97625.14;;;1.62;67.12
62436;BME280;48480;50.252;18.848;2024-01-16T10:32:42;97626.67;;;1.48;67.16
62436;BME280;48480;50.252;18.848;2024-01-16T10:35:26;97630.64;;;1.41;67.03
62436;BME280;48480;50.252;18.848;2024-01-16T10:38:20;97626.38;;;1.34;67.28
62436;BME280;48480;50.252;18.848;2024-01-16T10:41:09;97627.92;;;1.31;67.17
62436;BME280;48480;50.252;18.848;2024-01-16T10:44:04;97634.77;;;1.26;67.16
62436;BME280;48480;50.252;18.848;2024-01-16T10:46:50;97637.39;;;1.21;67.15
62436;BME280;48480;50.252;18.848;2024-01-16T10:49:34;97637.40;;;1.10;67.30
62436;BME280;48480;50.252;18.848;2024-01-16T10:52:18;97641.41;;;1.02;67.43
62436;BME280;48480;50.252;18.848;2024-01-16T10:55:03;97635.95;;;0.96;67.83
62436;BME280;48480;50.252;18.848;2024-01-16T10:57:50;97634.64;;;0.94;68.22
62436;BME280;48480;50.252;18.848;2024-01-16T11:00:37;97636.63;;;0.98;67.99
62436;BME280;48480;50.252;18.848;2024-01-16T11:03:34;97639.05;;;0.99;67.91
62436;BME280;48480;50.252;18.848;2024-01-16T11:06:19;97642.28;;;0.95;68.39
62436;BME280;48480;50.252;18.848;2024-01-16T11:09:03;97648.38;;;0.92;68.56
62436;BME280;48480;50.252;18.848;2024-01-16T11:11:47;97650.94;;;0.87;69.67
62436;BME280;48480;50.252;18.848;2024-01-16T11:14:34;97652.69;;;0.86;70.82
62436;BME280;48480;50.252;18.848;2024-01-16T11:17:20;97657.45;;;0.82;71.57
62436;BME280;48480;50.252;18.848;2024-01-16T11:20:05;97662.06;;;0.80;72.14
62436;BME280;48480;50.252;18.848;2024-01-16T11:22:54;97670.48;;;0.85;72.18
62436;BME280;48480;50.252;18.848;2024-01-16T11:25:43;97675.11;;;0.78;72.71
62436;BME280;48480;50.252;18.848;2024-01-16T11:28:28;97677.42;;;0.65;73.29
62436;BME280;48480;50.252;18.848;2024-01-16T11:31:32;97674.23;;;0.56;74.04
62436;BME280;48480;50.252;18.848;2024-01-16T11:37:32;97684.61;;;0.48;75.14
62436;BME280;48480;50.252;18.848;2024-01-16T11:46:16;97683.02;;;0.45;76.69
62436;BME280;48480;50.252;18.848;2024-01-16T11:49:03;97682.64;;;0.48;77.15
62436;BME280;48480;50.252;18.848;2024-01-16T11:51:47;97678.44;;;0.58;76.93
62436;BME280;48480;50.252;18.848;2024-01-16T11:54:33;97675.39;;;0.84;76.30
62436;BME280;48480;50.252;18.848;2024-01-16T12:00:18;97687.40;;;1.52;75.00
62436;BME280;48480;50.252;18.848;2024-01-16T12:03:04;97687.45;;;1.74;73.64
62436;BME280;48480;50.252;18.848;2024-01-16T12:05:58;97685.81;;;1.73;72.14
62436;BME280;48480;50.252;18.848;2024-01-16T12:08:43;97678.41;;;1.73;71.74
62436;BME280;48480;50.252;18.848;2024-01-16T12:11:27;97675.28;;;1.82;71.56
62436;BME280;48480;50.252;18.848;2024-01-16T12:14:12;97673.52;;;1.97;70.87
62436;BME280;48480;50.252;18.848;2024-01-16T12:17:11;97674.08;;;2.16;70.15
62436;BME280;48480;50.252;18.848;2024-01-16T12:19:56;97680.46;;;2.24;69.07
62436;BME280;48480;50.252;18.848;2024-01-16T12:22:40;97679.86;;;2.20;68.64
62436;BME280;48480;50.252;18.848;2024-01-16T12:25:28;97681.54;;;2.11;68.79
62436;BME280;48480;50.252;18.848;2024-01-16T12:28:12;97683.15;;;2.02;68.94
62436;BME280;48480;50.252;18.848;2024-01-16T12:31:01;97686.70;;;1.96;68.74
62436;BME280;48480;50.252;18.848;2024-01-16T12:33:46;97692.11;;;1.86;67.74
62436;BME280;48480;50.252;18.848;2024-01-16T12:36:30;97691.65;;;1.78;68.14
62436;BME280;48480;50.252;18.848;2024-01-16T12:39:14;97687.64;;;1.77;68.78
62436;BME280;48480;50.252;18.848;2024-01-16T12:42:03;97686.77;;;1.71;68.58
62436;BME280;48480;50.252;18.848;2024-01-16T12:44:47;97695.95;;;1.69;68.78
62436;BME280;48480;50.252;18.848;2024-01-16T12:47:31;97692.20;;;1.68;69.10
62436;BME280;48480;50.252;18.848;2024-01-16T12:50:23;97689.02;;;1.63;69.00
62436;BME280;48480;50.252;18.848;2024-01-16T12:53:09;97684.80;;;1.50;69.15
62436;BME280;48480;50.252;18.848;2024-01-16T12:55:58;97684.11;;;1.43;69.29
62436;BME280;48480;50.252;18.848;2024-01-16T12:58:52;97684.02;;;1.36;69.64
62436;BME280;48480;50.252;18.848;2024-01-16T13:01:39;97687.48;;;1.33;69.98
62436;BME280;48480;50.252;18.848;2024-01-16T13:04:25;97688.58;;;1.33;70.35
62436;BME280;48480;50.252;18.848;2024-01-16T13:07:09;97693.81;;;1.31;70.23
62436;BME280;48480;50.252;18.848;2024-01-16T13:10:09;97698.09;;;1.24;69.99
62436;BME280;48480;50.252;18.848;2024-01-16T13:15:58;97698.93;;;1.11;69.67
62436;BME280;48480;50.252;18.848;2024-01-16T13:18:43;97704.35;;;1.16;69.47
62436;BME280;48480;50.252;18.848;2024-01-16T13:21:27;97702.70;;;1.19;69.12
62436;BME280;48480;50.252;18.848;2024-01-16T13:24:11;97702.45;;;1.19;69.14
62436;BME280;48480;50.252;18.848;2024-01-16T13:26:57;97703.20;;;1.16;69.50
62436;BME280;48480;50.252;18.848;2024-01-16T13:29:42;97710.38;;;1.15;69.41
62436;BME280;48480;50.252;18.848;2024-01-16T13:32:28;97707.77;;;1.08;69.65
62436;BME280;48480;50.252;18.848;2024-01-16T13:35:13;97715.41;;;1.13;69.60
62436;BME280;48480;50.252;18.848;2024-01-16T13:37:58;97713.16;;;1.06;69.49
62436;BME280;48480;50.252;18.848;2024-01-16T13:40:42;97717.36;;;1.01;69.55
62436;BME280;48480;50.252;18.848;2024-01-16T13:43:26;97720.87;;;0.95;69.33
62436;BME280;48480;50.252;18.848;2024-01-16T13:46:10;97727.09;;;0.88;69.70
62436;BME280;48480;50.252;18.848;2024-01-16T13:48:54;97730.46;;;0.84;69.87
62436;BME280;48480;50.252;18.848;2024-01-16T13:51:39;97732.00;;;0.87;69.94
62436;BME280;48480;50.252;18.848;2024-01-16T13:54:23;97736.63;;;0.92;69.92
62436;BME280;48480;50.252;18.848;2024-01-16T13:57:07;97741.23;;;0.90;69.61
62436;BME280;48480;50.252;18.848;2024-01-16T13:59:51;97741.58;;;0.79;69.76
62436;BME280;48480;50.252;18.848;2024-01-16T14:02:35;97745.98;;;0.70;70.17
62436;BME280;48480;50.252;18.848;2024-01-16T14:05:21;97749.54;;;0.61;70.44
62436;BME280;48480;50.252;18.848;2024-01-16T14:08:05;97754.30;;;0.56;71.31
62436;BME280;48480;50.252;18.848;2024-01-16T14:10:50;97758.02;;;0.45;71.37
62436;BME280;48480;50.252;18.848;2024-01-16T14:13:35;97763.09;;;0.36;71.74
62436;BME280;48480;50.252;18.848;2024-01-16T14:16:21;97772.81;;;0.28;72.43
62436;BME280;48480;50.252;18.848;2024-01-16T14:19:05;97779.77;;;0.23;72.70
62436;BME280;48480;50.252;18.848;2024-01-16T14:21:49;97785.05;;;0.18;73.20
62436;BME280;48480;50.252;18.848;2024-01-16T14:24:33;97792.65;;;0.14;73.61
62436;BME280;48480;50.252;18.848;2024-01-16T14:27:17;97798.34;;;0.09;74.10
62436;BME280;48480;50.252;18.848;2024-01-16T14:30:01;97801.60;;;-0.03;74.33
62436;BME280;48480;50.252;18.848;2024-01-16T14:32:45;97805.44;;;-0.08;74.86
62436;BME280;48480;50.252;18.848;2024-01-16T14:35:29;97804.48;;;-0.08;74.97
62436;BME280;48480;50.252;18.848;2024-01-16T14:38:13;97801.33;;;-0.04;74.89
62436;BME280;48480;50.252;18.848;2024-01-16T14:40:57;97803.81;;;-0.00;74.99
62436;BME280;48480;50.252;18.848;2024-01-16T14:43:41;97807.88;;;-0.02;74.79
62436;BME280;48480;50.252;18.848;2024-01-16T14:46:26;97814.63;;;-0.02;75.05
62436;BME280;48480;50.252;18.848;2024-01-16T14:49:10;97813.41;;;-0.02;74.95